createdAt,value
2023-04-07T00:00:19.899Z,10.30
2023-04-07T00:03:09.325Z,9.40
2023-04-07T00:05:37.851Z,11.10
2023-04-07T00:08:06.087Z,10.30
2023-04-07T00:10:34.310Z,12.10
2023-04-07T00:13:03.087Z,10.60
2023-04-07T00:15:31.386Z,8.90
2023-04-07T00:17:59.873Z,10.10
2023-04-07T00:20:28.337Z,10.80
2023-04-07T00:22:56.533Z,14.10
2023-04-07T00:25:24.743Z,10.80
2023-04-07T00:27:53.055Z,12.10
2023-04-07T00:30:21.654Z,11.10
2023-04-07T00:32:51.757Z,11.40
2023-04-07T00:35:20.542Z,13.20
2023-04-07T00:37:48.841Z,10.90
2023-04-07T00:40:18.464Z,11.10
2023-04-07T00:42:46.808Z,11.00
2023-04-07T00:45:15.292Z,12.30
2023-04-07T00:47:44.262Z,11.30
2023-04-07T00:50:12.896Z,12.30
2023-04-07T00:52:42.416Z,11.70
2023-04-07T00:55:10.655Z,12.70
2023-04-07T00:57:39.039Z,11.50
2023-04-07T01:00:08.390Z,12.40
2023-04-07T01:02:46.083Z,13.30
2023-04-07T01:05:36.732Z,13.70
2023-04-07T01:08:25.898Z,13.60
2023-04-07T01:11:07.181Z,10.90
2023-04-07T01:13:48.454Z,12.80
2023-04-07T01:16:32.560Z,11.60
2023-04-07T01:19:27.610Z,12.40
2023-04-07T01:21:58.709Z,12.90
2023-04-07T01:27:39.876Z,11.50
2023-04-07T01:30:12.289Z,12.80
2023-04-07T01:32:44.182Z,13.60
2023-04-07T01:35:14.024Z,12.90
2023-04-07T01:37:44.022Z,12.80
2023-04-07T01:40:13.183Z,13.30
2023-04-07T01:42:42.326Z,15.50
2023-04-07T01:45:11.618Z,17.30
2023-04-07T01:47:40.750Z,18.40
2023-04-07T01:50:12.229Z,22.60
2023-04-07T01:52:41.278Z,22.30
2023-04-07T01:55:11.016Z,19.80
2023-04-07T01:57:39.140Z,18.90
2023-04-07T02:00:08.296Z,22.20
2023-04-07T02:02:42.058Z,22.50
2023-04-07T02:05:14.520Z,22.00
2023-04-07T02:07:45.566Z,25.00
2023-04-07T02:10:16.805Z,21.90
2023-04-07T02:12:47.469Z,24.60
2023-04-07T02:15:16.957Z,24.40
2023-04-07T02:17:49.469Z,22.60
2023-04-07T02:20:18.746Z,24.80
2023-04-07T02:22:47.463Z,26.60
2023-04-07T02:25:30.979Z,23.70
2023-04-07T02:28:00.846Z,24.70
2023-04-07T02:30:29.342Z,25.30
2023-04-07T02:32:57.650Z,23.50
2023-04-07T02:35:26.106Z,21.90
2023-04-07T02:37:54.504Z,22.00
2023-04-07T02:40:22.884Z,21.40
2023-04-07T02:42:51.136Z,23.20
2023-04-07T02:45:19.306Z,20.80
2023-04-07T02:47:47.538Z,22.40
2023-04-07T02:50:16.165Z,22.60
2023-04-07T02:52:44.231Z,19.50
2023-04-07T02:55:12.383Z,21.70
2023-04-07T02:57:40.789Z,22.70
2023-04-07T03:00:10.401Z,19.80
2023-04-07T03:02:38.731Z,21.60
2023-04-07T03:05:08.485Z,19.80
2023-04-07T03:07:36.662Z,16.60
2023-04-07T03:10:05.916Z,17.10
2023-04-07T03:12:33.999Z,20.70
2023-04-07T03:15:02.360Z,18.10
2023-04-07T03:17:30.984Z,20.00
2023-04-07T03:19:59.273Z,20.50
2023-04-07T03:22:27.656Z,18.40
2023-04-07T03:24:56.467Z,18.70
2023-04-07T03:27:24.619Z,16.50
2023-04-07T03:29:53.541Z,15.70
2023-04-07T03:32:21.780Z,16.10
2023-04-07T03:34:49.825Z,16.30
2023-04-07T03:37:18.038Z,19.10
2023-04-07T03:39:46.716Z,16.20
2023-04-07T03:42:15.197Z,16.50
2023-04-07T03:44:43.472Z,17.90
2023-04-07T03:47:12.368Z,17.10
2023-04-07T03:49:40.702Z,17.70
2023-04-07T03:52:09.027Z,18.10
2023-04-07T03:54:37.422Z,17.20
2023-04-07T03:57:05.990Z,16.50
2023-04-07T03:59:34.161Z,16.40
2023-04-07T04:02:02.438Z,17.90
2023-04-07T04:04:30.885Z,20.40
2023-04-07T04:06:59.052Z,19.50
2023-04-07T04:09:27.317Z,20.70
2023-04-07T04:11:56.541Z,18.40
2023-04-07T04:14:24.807Z,18.70
2023-04-07T04:16:53.685Z,20.40
2023-04-07T04:19:21.925Z,18.60
2023-04-07T04:21:50.088Z,17.20
2023-04-07T04:24:18.258Z,16.50
2023-04-07T04:26:46.484Z,18.50
2023-04-07T04:29:14.611Z,18.50
2023-04-07T04:31:42.761Z,19.20
2023-04-07T04:34:11.122Z,20.40
2023-04-07T04:36:41.776Z,18.20
2023-04-07T04:39:09.936Z,21.60
2023-04-07T04:41:38.052Z,19.40
2023-04-07T04:44:06.137Z,19.00
2023-04-07T04:46:34.401Z,21.70
2023-04-07T04:49:02.801Z,18.30
2023-04-07T04:51:30.990Z,19.50
2023-04-07T04:53:59.161Z,18.60
2023-04-07T04:56:27.303Z,18.70
2023-04-07T04:58:55.777Z,18.10
2023-04-07T05:01:23.768Z,17.80
2023-04-07T05:03:52.368Z,19.10
2023-04-07T05:06:21.542Z,23.10
2023-04-07T05:08:49.670Z,21.50
2023-04-07T05:11:17.875Z,19.70
2023-04-07T05:13:46.147Z,23.50
2023-04-07T05:16:14.430Z,20.80
2023-04-07T05:18:42.608Z,20.40
2023-04-07T05:21:10.798Z,22.10
2023-04-07T05:23:39.030Z,19.60
2023-04-07T05:26:07.146Z,22.40
2023-04-07T05:28:35.295Z,21.40
2023-04-07T05:31:05.036Z,19.40
2023-04-07T05:33:34.902Z,20.00
2023-04-07T05:36:03.010Z,20.20
2023-04-07T05:38:31.120Z,18.90
2023-04-07T05:40:59.146Z,18.50
2023-04-07T05:43:27.234Z,19.30
2023-04-07T05:45:55.289Z,19.20
2023-04-07T05:48:23.372Z,17.90
2023-04-07T05:50:51.615Z,20.50
2023-04-07T05:53:19.780Z,17.80
2023-04-07T05:55:47.845Z,19.50
2023-04-07T05:58:16.568Z,17.10
2023-04-07T06:00:44.641Z,16.10
2023-04-07T06:03:12.848Z,18.20
2023-04-07T06:05:43.797Z,17.90
2023-04-07T06:08:12.077Z,17.50
2023-04-07T06:10:42.156Z,18.30
2023-04-07T06:13:10.387Z,19.70
2023-04-07T06:15:38.600Z,19.40
2023-04-07T06:18:07.107Z,19.20
2023-04-07T06:20:35.971Z,19.60
2023-04-07T06:23:04.046Z,16.90
2023-04-07T06:25:32.168Z,18.20
2023-04-07T06:28:00.259Z,15.60
2023-04-07T06:30:28.426Z,18.50
2023-04-07T06:32:56.936Z,19.10
2023-04-07T06:35:27.062Z,21.20
2023-04-07T06:37:55.249Z,18.60
2023-04-07T06:40:23.519Z,20.90
2023-04-07T06:42:52.293Z,17.40
2023-04-07T06:45:20.771Z,22.00
2023-04-07T06:47:48.910Z,20.50
2023-04-07T06:50:21.063Z,18.50
2023-04-07T06:52:49.713Z,17.30
2023-04-07T06:55:18.387Z,15.80
2023-04-07T06:57:46.576Z,16.10
2023-04-07T07:00:15.498Z,16.40
2023-04-07T07:02:43.639Z,17.80
2023-04-07T07:05:11.780Z,18.70
2023-04-07T07:07:41.581Z,14.60
2023-04-07T07:10:11.002Z,14.50
2023-04-07T07:12:39.445Z,13.20
2023-04-07T07:15:08.602Z,15.40
2023-04-07T07:17:36.801Z,13.90
2023-04-07T07:20:05.856Z,14.60
2023-04-07T07:22:34.020Z,15.50
2023-04-07T07:25:02.180Z,13.50
2023-04-07T07:27:30.481Z,15.30
2023-04-07T07:29:58.579Z,12.20
2023-04-07T07:32:26.764Z,13.00
2023-04-07T07:34:55.005Z,12.00
2023-04-07T07:37:23.210Z,12.50
2023-04-07T07:39:51.314Z,10.80
2023-04-07T07:42:19.392Z,11.50
2023-04-07T07:44:47.485Z,10.10
2023-04-07T07:47:15.751Z,10.50
2023-04-07T07:49:43.805Z,8.80
2023-04-07T07:52:12.038Z,14.40
2023-04-07T07:54:40.127Z,9.80
2023-04-07T07:57:08.298Z,10.10
2023-04-07T07:59:36.471Z,9.70
2023-04-07T08:02:04.673Z,12.30
2023-04-07T08:04:34.345Z,10.20
2023-04-07T08:07:02.966Z,9.30
2023-04-07T08:09:32.720Z,11.00
2023-04-07T08:12:01.064Z,9.30
2023-04-07T08:14:29.513Z,10.70
2023-04-07T08:16:57.589Z,10.10
2023-04-07T08:19:25.930Z,8.70
2023-04-07T08:21:53.994Z,9.20
2023-04-07T08:24:22.404Z,8.60
2023-04-07T08:26:50.580Z,8.70
2023-04-07T08:29:18.690Z,9.00
2023-04-07T08:31:46.866Z,8.90
2023-04-07T08:34:15.228Z,9.00
2023-04-07T08:36:44.147Z,9.10
2023-04-07T08:39:12.392Z,8.60
2023-04-07T08:41:42.536Z,7.90
2023-04-07T08:44:10.793Z,9.80
2023-04-07T08:46:40.656Z,8.70
2023-04-07T08:49:14.112Z,11.50
2023-04-07T08:51:50.724Z,8.90
2023-04-07T08:54:19.350Z,10.20
2023-04-07T08:56:47.922Z,7.40
2023-04-07T08:59:18.769Z,9.40
2023-04-07T09:01:49.421Z,8.80
2023-04-07T09:04:18.132Z,8.60
2023-04-07T09:06:46.968Z,8.60
2023-04-07T09:09:15.465Z,8.50
2023-04-07T09:11:43.722Z,7.60
2023-04-07T09:14:11.912Z,8.90
2023-04-07T09:16:40.262Z,7.60
2023-04-07T09:19:09.148Z,7.80
2023-04-07T09:21:50.399Z,9.40
2023-04-07T09:24:26.357Z,7.20
2023-04-07T09:27:20.777Z,7.50
2023-04-07T09:29:48.920Z,7.90
2023-04-07T09:32:36.829Z,7.30
2023-04-07T09:35:07.735Z,8.10
2023-04-07T09:37:36.658Z,6.10
2023-04-07T09:40:05.325Z,7.70
2023-04-07T09:42:36.238Z,7.50
2023-04-07T09:47:33.454Z,8.30
2023-04-07T09:50:07.354Z,7.50
2023-04-07T09:52:53.942Z,7.40
2023-04-07T09:55:23.259Z,7.50
2023-04-07T09:57:52.143Z,5.90
2023-04-07T10:00:20.464Z,8.20
2023-04-07T10:02:49.535Z,7.00
2023-04-07T10:05:17.905Z,8.00
2023-04-07T10:07:46.106Z,6.50
2023-04-07T10:10:14.321Z,9.60
2023-04-07T10:12:43.056Z,8.00
2023-04-07T10:15:17.042Z,7.70
2023-04-07T10:17:48.419Z,6.90
2023-04-07T10:20:23.449Z,7.70
2023-04-07T10:22:54.094Z,8.30
2023-04-07T10:25:25.074Z,8.50
2023-04-07T10:30:30.784Z,14.60
2023-04-07T10:32:59.119Z,7.90
2023-04-07T10:35:27.302Z,8.90
2023-04-07T10:38:07.638Z,9.40
2023-04-07T10:40:37.179Z,8.90
2023-04-07T10:43:15.115Z,7.90
2023-04-07T10:45:46.707Z,9.60
2023-04-07T10:48:18.833Z,8.10
2023-04-07T10:51:14.391Z,8.20
2023-04-07T10:54:17.194Z,8.60
2023-04-07T10:57:03.732Z,9.00
2023-04-07T10:59:35.449Z,8.40
2023-04-07T11:02:12.933Z,9.60
2023-04-07T11:04:43.778Z,9.90
2023-04-07T11:07:13.277Z,8.50
2023-04-07T11:09:41.708Z,10.20
2023-04-07T11:12:23.187Z,8.00
2023-04-07T11:14:51.296Z,8.90
2023-04-07T11:17:19.389Z,7.80
2023-04-07T11:19:52.445Z,7.50
2023-04-07T11:24:51.849Z,7.80
2023-04-07T11:27:20.430Z,8.30
2023-04-07T11:29:49.036Z,8.80
2023-04-07T11:32:26.191Z,9.00
2023-04-07T11:34:54.375Z,8.90
2023-04-07T11:37:29.007Z,8.60
2023-04-07T11:39:59.173Z,8.30
2023-04-07T11:42:38.720Z,7.20
2023-04-07T11:45:17.378Z,7.60
2023-04-07T11:47:45.612Z,7.70
2023-04-07T11:50:14.436Z,7.70
2023-04-07T11:52:47.949Z,8.60
2023-04-07T11:55:24.655Z,8.00
2023-04-07T11:57:52.904Z,8.70
2023-04-07T12:00:21.322Z,7.40
2023-04-07T12:02:49.728Z,7.60
2023-04-07T12:05:18.205Z,10.60
2023-04-07T12:07:56.587Z,6.90
2023-04-07T12:10:28.910Z,7.60
2023-04-07T12:12:59.288Z,8.90
2023-04-07T12:15:27.686Z,8.60
2023-04-07T12:17:56.128Z,7.00
2023-04-07T12:20:24.265Z,6.90
2023-04-07T12:22:52.874Z,6.70
2023-04-07T12:25:21.304Z,6.60
2023-04-07T12:27:49.480Z,6.90
2023-04-07T12:30:17.620Z,7.80
2023-04-07T12:32:45.721Z,6.10
2023-04-07T12:35:13.870Z,7.00
2023-04-07T12:37:41.942Z,6.10
2023-04-07T12:40:11.625Z,6.20
2023-04-07T12:42:40.004Z,6.70
2023-04-07T12:45:08.535Z,7.60
2023-04-07T12:47:36.774Z,6.90
2023-04-07T12:50:05.251Z,7.30
2023-04-07T12:52:33.461Z,7.00
2023-04-07T12:55:01.636Z,7.80
2023-04-07T12:57:29.876Z,6.80
2023-04-07T12:59:58.242Z,8.00
2023-04-07T13:02:27.065Z,8.50
2023-04-07T13:04:55.769Z,7.00
2023-04-07T13:07:24.003Z,7.40
2023-04-07T13:09:52.091Z,8.50
2023-04-07T13:12:20.456Z,7.40
2023-04-07T13:14:59.310Z,7.60
2023-04-07T13:17:29.231Z,7.70
2023-04-07T13:19:57.547Z,7.80
2023-04-07T13:22:25.855Z,7.60
2023-04-07T13:24:53.963Z,7.80
2023-04-07T13:27:22.506Z,7.90
2023-04-07T13:29:50.618Z,8.40
2023-04-07T13:32:18.796Z,8.00
2023-04-07T13:34:46.901Z,8.60
2023-04-07T13:37:16.784Z,7.90
2023-04-07T13:39:44.886Z,7.90
2023-04-07T13:42:17.002Z,7.60
2023-04-07T13:44:50.619Z,8.60
2023-04-07T13:47:21.796Z,8.40
2023-04-07T13:49:52.012Z,7.40
2023-04-07T13:52:20.073Z,7.10
2023-04-07T13:54:48.161Z,8.10
2023-04-07T13:57:20.938Z,8.40
2023-04-07T13:59:52.516Z,11.80
2023-04-07T14:02:21.117Z,9.50
2023-04-07T14:04:49.415Z,8.50
2023-04-07T14:07:17.611Z,8.30
2023-04-07T14:09:46.446Z,7.80
2023-04-07T14:12:15.173Z,7.80
2023-04-07T14:14:43.210Z,8.00
2023-04-07T14:17:11.480Z,7.20
2023-04-07T14:19:39.870Z,8.40
2023-04-07T14:22:08.042Z,8.80
2023-04-07T14:24:36.164Z,7.00
2023-04-07T14:27:05.511Z,9.20
2023-04-07T14:29:33.652Z,8.00
2023-04-07T14:32:01.967Z,7.90
2023-04-07T14:34:30.128Z,9.40
2023-04-07T14:37:01.737Z,8.40
2023-04-07T14:39:30.258Z,7.90
2023-04-07T14:41:58.400Z,8.70
2023-04-07T14:44:27.253Z,8.30
2023-04-07T14:46:55.457Z,8.40
2023-04-07T14:49:25.215Z,8.40
2023-04-07T14:51:53.614Z,7.70
2023-04-07T14:54:21.790Z,7.80
2023-04-07T14:56:49.954Z,9.60
2023-04-07T14:59:18.004Z,9.20
2023-04-07T15:01:46.216Z,9.20
2023-04-07T15:04:14.425Z,9.00
2023-04-07T15:06:43.677Z,8.20
2023-04-07T15:09:12.347Z,9.40
2023-04-07T15:11:40.507Z,8.70
2023-04-07T15:14:08.606Z,9.40
2023-04-07T15:16:37.027Z,8.60
2023-04-07T15:19:05.421Z,9.10
2023-04-07T15:21:33.580Z,9.40
2023-04-07T15:24:01.659Z,8.40
2023-04-07T15:26:29.829Z,9.00
2023-04-07T15:28:58.021Z,9.50
2023-04-07T15:31:28.016Z,8.90
2023-04-07T15:33:56.249Z,6.90
2023-04-07T15:36:24.625Z,9.70
2023-04-07T15:38:52.743Z,10.40
2023-04-07T15:41:20.867Z,8.00
2023-04-07T15:43:49.601Z,7.50
2023-04-07T15:46:17.946Z,7.70
2023-04-07T15:48:47.915Z,8.70
2023-04-07T15:51:16.236Z,9.70
2023-04-07T15:53:44.511Z,7.90
2023-04-07T15:56:13.885Z,8.40
2023-04-07T15:58:42.125Z,9.00
2023-04-07T16:01:10.384Z,8.30
2023-04-07T16:03:38.570Z,8.30
2023-04-07T16:06:06.867Z,9.10
2023-04-07T16:08:34.926Z,8.30
2023-04-07T16:11:03.005Z,7.90
2023-04-07T16:13:31.140Z,8.90
2023-04-07T16:15:59.362Z,8.80
2023-04-07T16:18:27.508Z,8.60
2023-04-07T16:20:55.818Z,9.10
2023-04-07T16:23:24.444Z,9.00
2023-04-07T16:25:52.527Z,9.30
2023-04-07T16:28:20.627Z,8.80
2023-04-07T16:30:48.771Z,8.80
2023-04-07T16:33:16.824Z,8.80
2023-04-07T16:35:45.032Z,8.70
2023-04-07T16:38:13.111Z,9.20
2023-04-07T16:40:44.153Z,8.30
2023-04-07T16:43:18.554Z,8.40
2023-04-07T16:45:52.828Z,9.50
2023-04-07T16:48:20.904Z,8.90
2023-04-07T16:50:49.118Z,9.80
2023-04-07T16:53:17.531Z,8.70
2023-04-07T16:55:46.322Z,9.40
2023-04-07T16:58:19.101Z,10.80
2023-04-07T17:00:47.296Z,8.90
2023-04-07T17:03:15.689Z,9.20
2023-04-07T17:05:47.388Z,8.70
2023-04-07T17:08:16.211Z,9.20
2023-04-07T17:10:44.262Z,9.20
2023-04-07T17:13:12.337Z,8.50
2023-04-07T17:15:40.582Z,9.50
2023-04-07T17:18:08.822Z,8.60
2023-04-07T17:20:44.076Z,10.10
2023-04-07T17:23:12.320Z,9.80
2023-04-07T17:25:40.856Z,10.60
2023-04-07T17:28:09.011Z,10.30
2023-04-07T17:30:37.519Z,11.30
2023-04-07T17:33:08.469Z,9.30
2023-04-07T17:35:36.620Z,13.30
2023-04-07T17:38:05.630Z,10.50
2023-04-07T17:40:33.682Z,9.20
2023-04-07T17:43:01.793Z,9.80
2023-04-07T17:45:29.985Z,9.80
2023-04-07T17:47:58.384Z,10.20
2023-04-07T17:50:26.650Z,9.90
2023-04-07T17:52:54.789Z,10.80
2023-04-07T17:55:22.995Z,10.10
2023-04-07T17:57:51.875Z,11.30
2023-04-07T18:00:21.555Z,10.30
2023-04-07T18:02:50.254Z,11.50
2023-04-07T18:05:20.036Z,11.00
2023-04-07T18:07:48.353Z,14.40
2023-04-07T18:10:17.004Z,14.60
2023-04-07T18:12:45.677Z,12.70
2023-04-07T18:15:14.946Z,12.00
2023-04-07T18:17:43.306Z,12.50
2023-04-07T18:20:12.798Z,12.20
2023-04-07T18:22:43.128Z,13.20
2023-04-07T18:25:12.584Z,13.40
2023-04-07T18:27:41.530Z,11.10
2023-04-07T18:30:10.799Z,12.60
2023-04-07T18:32:39.100Z,12.80
2023-04-07T18:35:08.204Z,12.90
2023-04-07T18:37:36.886Z,14.70
2023-04-07T18:40:05.879Z,11.60
2023-04-07T18:42:34.023Z,10.80
2023-04-07T18:45:02.258Z,11.90
2023-04-07T18:47:30.426Z,13.70
2023-04-07T18:49:58.687Z,14.40
2023-04-07T18:52:26.975Z,12.30
2023-04-07T18:54:55.187Z,15.40
2023-04-07T18:57:23.296Z,13.00
2023-04-07T18:59:53.016Z,12.90
2023-04-07T19:02:21.427Z,13.90
2023-04-07T19:04:49.729Z,13.40
2023-04-07T19:07:17.738Z,13.50
2023-04-07T19:09:46.946Z,15.00
2023-04-07T19:12:15.068Z,12.50
2023-04-07T19:14:43.187Z,12.30
2023-04-07T19:17:11.913Z,14.60
2023-04-07T19:19:40.011Z,15.20
2023-04-07T19:22:08.190Z,13.20
2023-04-07T19:24:36.374Z,13.80
2023-04-07T19:27:04.576Z,13.90
2023-04-07T19:29:33.237Z,13.70
2023-04-07T19:32:01.430Z,15.20
2023-04-07T19:34:29.612Z,16.10
2023-04-07T19:36:58.797Z,14.80
2023-04-07T19:39:27.968Z,15.20
2023-04-07T19:41:56.270Z,13.30
2023-04-07T19:44:26.135Z,13.10
2023-04-07T19:46:54.596Z,16.20
2023-04-07T19:49:22.793Z,14.90
2023-04-07T19:51:54.270Z,14.80
2023-04-07T19:54:22.441Z,14.20
2023-04-07T19:56:50.696Z,16.00
2023-04-07T19:59:20.966Z,15.00
2023-04-07T20:01:51.413Z,14.10
2023-04-07T20:04:19.801Z,14.90
2023-04-07T20:06:47.945Z,15.60
2023-04-07T20:09:16.458Z,15.00
2023-04-07T20:11:44.904Z,13.80
2023-04-07T20:14:13.075Z,13.70
2023-04-07T20:16:41.579Z,15.20
2023-04-07T20:19:09.895Z,16.90
2023-04-07T20:21:38.056Z,14.40
2023-04-07T20:24:06.161Z,15.60
2023-04-07T20:26:34.305Z,15.90
2023-04-07T20:29:02.487Z,14.80
2023-04-07T20:31:31.027Z,14.90
2023-04-07T20:34:00.125Z,14.70
2023-04-07T20:36:28.238Z,14.70
2023-04-07T20:38:56.727Z,15.30
2023-04-07T20:41:24.829Z,14.50
2023-04-07T20:43:55.040Z,13.90
2023-04-07T20:46:23.293Z,14.10
2023-04-07T20:48:51.734Z,14.00
2023-04-07T20:51:19.831Z,15.40
2023-04-07T20:53:48.508Z,14.70
2023-04-07T20:56:16.608Z,14.90
2023-04-07T20:58:44.666Z,15.50
2023-04-07T21:01:12.846Z,14.00
2023-04-07T21:03:41.058Z,15.10
2023-04-07T21:06:09.331Z,14.70
2023-04-07T21:08:37.394Z,13.80
2023-04-07T21:11:05.656Z,14.10
2023-04-07T21:13:33.791Z,13.60
2023-04-07T21:16:03.919Z,15.00
2023-04-07T21:18:32.197Z,14.20
2023-04-07T21:21:02.348Z,15.80
2023-04-07T21:23:32.089Z,13.10
2023-04-07T21:26:01.938Z,15.60
2023-04-07T21:28:30.432Z,14.50
2023-04-07T21:30:59.463Z,15.20
2023-04-07T21:33:27.712Z,14.90
2023-04-07T21:35:55.857Z,13.70
2023-04-07T21:38:24.001Z,17.00
2023-04-07T21:40:52.062Z,17.70
2023-04-07T21:43:20.198Z,15.90
2023-04-07T21:45:48.258Z,15.40
2023-04-07T21:48:20.846Z,15.40
2023-04-07T21:50:50.858Z,14.80
2023-04-07T21:53:19.451Z,15.30
2023-04-07T21:55:47.526Z,15.40
2023-04-07T21:58:15.645Z,14.10
2023-04-07T22:00:43.724Z,15.40
2023-04-07T22:03:12.049Z,14.20
2023-04-07T22:05:40.351Z,15.70
2023-04-07T22:08:08.453Z,14.30
2023-04-07T22:10:36.640Z,14.50
2023-04-07T22:13:04.889Z,16.00
2023-04-07T22:15:32.953Z,14.50
2023-04-07T22:18:01.007Z,14.40
2023-04-07T22:20:29.075Z,16.50
2023-04-07T22:23:00.152Z,14.80
2023-04-07T22:25:29.055Z,17.90
2023-04-07T22:27:57.830Z,14.60
2023-04-07T22:30:29.951Z,14.20
2023-04-07T22:33:00.363Z,15.40
2023-04-07T22:35:28.925Z,16.20
2023-04-07T22:37:57.058Z,14.40
2023-04-07T22:40:25.423Z,16.20
2023-04-07T22:42:53.475Z,14.10
2023-04-07T22:45:21.588Z,15.50
2023-04-07T22:47:49.756Z,15.40
2023-04-07T22:50:17.861Z,14.80
2023-04-07T22:52:46.000Z,15.70
2023-04-07T22:55:14.008Z,17.30
2023-04-07T22:57:42.083Z,13.80
2023-04-07T23:00:10.933Z,15.00
2023-04-07T23:02:39.186Z,16.20
2023-04-07T23:05:10.342Z,15.90
2023-04-07T23:07:38.513Z,14.60
2023-04-07T23:10:07.956Z,15.00
2023-04-07T23:12:36.413Z,15.50
2023-04-07T23:15:05.008Z,16.90
2023-04-07T23:17:33.522Z,18.30
2023-04-07T23:20:01.535Z,15.70
2023-04-07T23:22:29.679Z,17.50
2023-04-07T23:24:57.862Z,16.80
2023-04-07T23:27:25.934Z,15.80
2023-04-07T23:29:54.090Z,16.70
2023-04-07T23:32:22.167Z,16.10
2023-04-07T23:34:50.249Z,16.20
2023-04-07T23:37:18.321Z,17.30
2023-04-07T23:39:46.678Z,16.80
2023-04-07T23:42:15.213Z,16.50
2023-04-07T23:44:43.273Z,19.10
2023-04-07T23:47:11.374Z,18.60
2023-04-07T23:49:39.470Z,17.30
2023-04-07T23:52:08.062Z,16.00
2023-04-07T23:54:36.783Z,16.00
2023-04-07T23:57:05.017Z,17.70
2023-04-07T23:59:33.114Z,18.70
